sensor_id;sensor_type;location;lat;lon;timestamp;temperature;humidity
47338;DHT22;33069;51.970;5.892;2023-03-12T00:01:35;2.10;69.70
47338;DHT22;33069;51.970;5.892;2023-03-12T00:04:02;2.00;69.50
47338;DHT22;33069;51.970;5.892;2023-03-12T00:06:29;2.10;69.90
47338;DHT22;33069;51.970;5.892;2023-03-12T00:08:54;2.10;69.70
47338;DHT22;33069;51.970;5.892;2023-03-12T00:11:20;2.20;70.00
47338;DHT22;33069;51.970;5.892;2023-03-12T00:13:50;2.40;69.60
47338;DHT22;33069;51.970;5.892;2023-03-12T00:16:16;2.40;69.20
47338;DHT22;33069;51.970;5.892;2023-03-12T00:18:43;2.50;69.30
47338;DHT22;33069;51.970;5.892;2023-03-12T00:21:09;2.60;68.80
47338;DHT22;33069;51.970;5.892;2023-03-12T00:23:35;2.70;68.40
47338;DHT22;33069;51.970;5.892;2023-03-12T00:26:06;2.60;68.10
47338;DHT22;33069;51.970;5.892;2023-03-12T00:28:33;2.50;67.80
47338;DHT22;33069;51.970;5.892;2023-03-12T00:30:59;2.50;67.70
47338;DHT22;33069;51.970;5.892;2023-03-12T00:33:26;2.60;67.90
47338;DHT22;33069;51.970;5.892;2023-03-12T00:35:54;2.50;67.70
47338;DHT22;33069;51.970;5.892;2023-03-12T00:38:20;2.40;67.70
47338;DHT22;33069;51.970;5.892;2023-03-12T00:40:46;2.30;68.50
47338;DHT22;33069;51.970;5.892;2023-03-12T00:43:12;2.30;68.30
47338;DHT22;33069;51.970;5.892;2023-03-12T00:45:37;2.30;68.20
47338;DHT22;33069;51.970;5.892;2023-03-12T00:48:03;2.30;68.30
47338;DHT22;33069;51.970;5.892;2023-03-12T00:50:29;2.20;68.00
47338;DHT22;33069;51.970;5.892;2023-03-12T00:52:54;2.30;68.60
47338;DHT22;33069;51.970;5.892;2023-03-12T00:55:20;2.30;68.40
47338;DHT22;33069;51.970;5.892;2023-03-12T00:57:46;2.30;68.30
47338;DHT22;33069;51.970;5.892;2023-03-12T01:00:12;2.30;68.00
47338;DHT22;33069;51.970;5.892;2023-03-12T01:02:38;2.40;67.80
47338;DHT22;33069;51.970;5.892;2023-03-12T01:05:06;2.50;68.00
47338;DHT22;33069;51.970;5.892;2023-03-12T01:07:33;2.50;68.00
47338;DHT22;33069;51.970;5.892;2023-03-12T01:09:59;2.60;68.10
47338;DHT22;33069;51.970;5.892;2023-03-12T01:12:25;2.60;67.70
47338;DHT22;33069;51.970;5.892;2023-03-12T01:14:50;2.60;67.90
47338;DHT22;33069;51.970;5.892;2023-03-12T01:17:16;2.60;67.80
47338;DHT22;33069;51.970;5.892;2023-03-12T01:19:42;2.70;67.80
47338;DHT22;33069;51.970;5.892;2023-03-12T01:22:08;2.70;67.80
47338;DHT22;33069;51.970;5.892;2023-03-12T01:24:33;2.60;67.90
47338;DHT22;33069;51.970;5.892;2023-03-12T01:26:59;2.60;67.90
47338;DHT22;33069;51.970;5.892;2023-03-12T01:29:25;2.60;68.10
47338;DHT22;33069;51.970;5.892;2023-03-12T01:31:50;2.50;67.70
47338;DHT22;33069;51.970;5.892;2023-03-12T01:34:17;2.50;67.90
47338;DHT22;33069;51.970;5.892;2023-03-12T01:36:43;2.50;68.20
47338;DHT22;33069;51.970;5.892;2023-03-12T01:39:09;2.50;68.30
47338;DHT22;33069;51.970;5.892;2023-03-12T01:41:35;2.40;68.10
47338;DHT22;33069;51.970;5.892;2023-03-12T01:44:02;2.40;68.00
47338;DHT22;33069;51.970;5.892;2023-03-12T01:46:36;2.40;68.30
47338;DHT22;33069;51.970;5.892;2023-03-12T01:51:49;2.50;68.10
47338;DHT22;33069;51.970;5.892;2023-03-12T01:54:54;2.50;67.80
47338;DHT22;33069;51.970;5.892;2023-03-12T01:57:26;2.50;67.90
47338;DHT22;33069;51.970;5.892;2023-03-12T02:00:00;2.40;67.80
47338;DHT22;33069;51.970;5.892;2023-03-12T02:02:26;2.40;67.80
47338;DHT22;33069;51.970;5.892;2023-03-12T02:07:33;2.50;67.80
47338;DHT22;33069;51.970;5.892;2023-03-12T02:09:59;2.50;67.60
47338;DHT22;33069;51.970;5.892;2023-03-12T02:12:26;2.50;67.90
47338;DHT22;33069;51.970;5.892;2023-03-12T02:14:52;2.50;67.60
47338;DHT22;33069;51.970;5.892;2023-03-12T02:17:18;2.40;68.00
47338;DHT22;33069;51.970;5.892;2023-03-12T02:22:25;2.40;67.60
47338;DHT22;33069;51.970;5.892;2023-03-12T02:24:59;2.40;68.00
47338;DHT22;33069;51.970;5.892;2023-03-12T02:27:30;2.60;68.00
47338;DHT22;33069;51.970;5.892;2023-03-12T02:29:57;2.50;67.90
47338;DHT22;33069;51.970;5.892;2023-03-12T02:32:26;2.50;68.00
47338;DHT22;33069;51.970;5.892;2023-03-12T02:34:52;2.50;67.70
47338;DHT22;33069;51.970;5.892;2023-03-12T02:37:20;2.70;67.80
47338;DHT22;33069;51.970;5.892;2023-03-12T02:39:53;2.60;67.40
47338;DHT22;33069;51.970;5.892;2023-03-12T02:42:21;2.70;67.70
47338;DHT22;33069;51.970;5.892;2023-03-12T02:44:47;2.70;67.10
47338;DHT22;33069;51.970;5.892;2023-03-12T02:47:13;2.60;67.10
47338;DHT22;33069;51.970;5.892;2023-03-12T02:49:39;2.60;67.40
47338;DHT22;33069;51.970;5.892;2023-03-12T02:52:04;2.70;67.60
47338;DHT22;33069;51.970;5.892;2023-03-12T02:54:30;2.70;67.40
47338;DHT22;33069;51.970;5.892;2023-03-12T02:56:56;2.70;67.30
47338;DHT22;33069;51.970;5.892;2023-03-12T02:59:23;2.50;67.70
47338;DHT22;33069;51.970;5.892;2023-03-12T03:01:56;2.60;68.30
47338;DHT22;33069;51.970;5.892;2023-03-12T03:04:22;2.60;68.40
47338;DHT22;33069;51.970;5.892;2023-03-12T03:06:49;2.60;68.50
47338;DHT22;33069;51.970;5.892;2023-03-12T03:09:15;2.50;68.60
47338;DHT22;33069;51.970;5.892;2023-03-12T03:11:41;2.50;68.70
47338;DHT22;33069;51.970;5.892;2023-03-12T03:14:07;2.70;68.90
47338;DHT22;33069;51.970;5.892;2023-03-12T03:16:33;2.70;68.70
47338;DHT22;33069;51.970;5.892;2023-03-12T03:18:59;2.80;68.30
47338;DHT22;33069;51.970;5.892;2023-03-12T03:21:24;2.60;68.30
47338;DHT22;33069;51.970;5.892;2023-03-12T03:23:51;2.60;68.40
47338;DHT22;33069;51.970;5.892;2023-03-12T03:26:21;2.70;68.40
47338;DHT22;33069;51.970;5.892;2023-03-12T03:28:48;2.70;68.60
47338;DHT22;33069;51.970;5.892;2023-03-12T03:31:14;2.70;68.50
47338;DHT22;33069;51.970;5.892;2023-03-12T03:33:40;2.70;68.10
47338;DHT22;33069;51.970;5.892;2023-03-12T03:36:06;2.70;68.00
47338;DHT22;33069;51.970;5.892;2023-03-12T03:38:33;2.80;67.60
47338;DHT22;33069;51.970;5.892;2023-03-12T03:40:59;2.70;67.60
47338;DHT22;33069;51.970;5.892;2023-03-12T03:43:26;2.80;67.20
47338;DHT22;33069;51.970;5.892;2023-03-12T03:46:03;2.80;67.00
47338;DHT22;33069;51.970;5.892;2023-03-12T03:48:30;2.80;67.10
47338;DHT22;33069;51.970;5.892;2023-03-12T03:51:03;2.70;67.30
47338;DHT22;33069;51.970;5.892;2023-03-12T03:53:30;2.70;67.40
47338;DHT22;33069;51.970;5.892;2023-03-12T03:55:56;2.90;67.30
47338;DHT22;33069;51.970;5.892;2023-03-12T03:58:21;2.80;67.30
47338;DHT22;33069;51.970;5.892;2023-03-12T04:00:47;2.90;67.70
47338;DHT22;33069;51.970;5.892;2023-03-12T04:03:13;2.80;67.50
47338;DHT22;33069;51.970;5.892;2023-03-12T04:05:39;2.80;67.80
47338;DHT22;33069;51.970;5.892;2023-03-12T04:08:10;2.80;67.80
47338;DHT22;33069;51.970;5.892;2023-03-12T04:10:36;2.70;68.10
47338;DHT22;33069;51.970;5.892;2023-03-12T04:13:02;2.70;68.20
47338;DHT22;33069;51.970;5.892;2023-03-12T04:15:28;2.70;68.60
47338;DHT22;33069;51.970;5.892;2023-03-12T04:17:53;2.80;68.70
47338;DHT22;33069;51.970;5.892;2023-03-12T04:20:19;2.80;68.70
47338;DHT22;33069;51.970;5.892;2023-03-12T04:22:45;2.80;68.30
47338;DHT22;33069;51.970;5.892;2023-03-12T04:25:10;2.70;68.60
47338;DHT22;33069;51.970;5.892;2023-03-12T04:27:36;2.80;68.90
47338;DHT22;33069;51.970;5.892;2023-03-12T04:30:02;2.80;69.00
47338;DHT22;33069;51.970;5.892;2023-03-12T04:32:28;2.80;69.20
47338;DHT22;33069;51.970;5.892;2023-03-12T04:34:54;2.80;69.50
47338;DHT22;33069;51.970;5.892;2023-03-12T04:37:19;3.00;69.40
47338;DHT22;33069;51.970;5.892;2023-03-12T04:39:45;2.80;69.20
47338;DHT22;33069;51.970;5.892;2023-03-12T04:42:11;3.00;69.60
47338;DHT22;33069;51.970;5.892;2023-03-12T04:44:37;2.90;69.50
47338;DHT22;33069;51.970;5.892;2023-03-12T04:47:03;3.00;69.70
47338;DHT22;33069;51.970;5.892;2023-03-12T04:49:29;2.90;69.80
47338;DHT22;33069;51.970;5.892;2023-03-12T04:51:55;2.90;70.30
47338;DHT22;33069;51.970;5.892;2023-03-12T04:54:21;3.10;70.50
47338;DHT22;33069;51.970;5.892;2023-03-12T04:56:48;3.10;70.50
47338;DHT22;33069;51.970;5.892;2023-03-12T04:59:14;3.10;70.80
47338;DHT22;33069;51.970;5.892;2023-03-12T05:01:40;3.10;70.70
47338;DHT22;33069;51.970;5.892;2023-03-12T05:04:06;3.10;70.80
47338;DHT22;33069;51.970;5.892;2023-03-12T05:06:32;3.20;70.80
47338;DHT22;33069;51.970;5.892;2023-03-12T05:08:58;3.20;71.20
47338;DHT22;33069;51.970;5.892;2023-03-12T05:11:24;3.30;71.50
47338;DHT22;33069;51.970;5.892;2023-03-12T05:13:50;3.20;71.60
47338;DHT22;33069;51.970;5.892;2023-03-12T05:16:16;3.20;72.00
47338;DHT22;33069;51.970;5.892;2023-03-12T05:18:42;3.20;72.00
47338;DHT22;33069;51.970;5.892;2023-03-12T05:21:15;3.20;72.20
47338;DHT22;33069;51.970;5.892;2023-03-12T05:23:42;3.10;72.20
47338;DHT22;33069;51.970;5.892;2023-03-12T05:26:23;3.00;72.40
47338;DHT22;33069;51.970;5.892;2023-03-12T05:28:49;3.00;72.80
47338;DHT22;33069;51.970;5.892;2023-03-12T05:31:16;3.20;72.70
47338;DHT22;33069;51.970;5.892;2023-03-12T05:33:42;3.20;72.30
47338;DHT22;33069;51.970;5.892;2023-03-12T05:36:09;3.10;72.30
47338;DHT22;33069;51.970;5.892;2023-03-12T05:38:34;3.00;72.60
47338;DHT22;33069;51.970;5.892;2023-03-12T05:41:00;2.80;73.00
47338;DHT22;33069;51.970;5.892;2023-03-12T05:43:27;3.00;73.00
47338;DHT22;33069;51.970;5.892;2023-03-12T05:45:53;2.90;73.10
47338;DHT22;33069;51.970;5.892;2023-03-12T05:48:22;3.00;73.50
47338;DHT22;33069;51.970;5.892;2023-03-12T05:50:47;2.90;73.30
47338;DHT22;33069;51.970;5.892;2023-03-12T05:53:13;2.90;73.40
47338;DHT22;33069;51.970;5.892;2023-03-12T05:55:39;3.20;73.30
47338;DHT22;33069;51.970;5.892;2023-03-12T05:58:06;3.20;72.70
47338;DHT22;33069;51.970;5.892;2023-03-12T06:00:33;3.00;72.80
47338;DHT22;33069;51.970;5.892;2023-03-12T06:03:07;3.10;73.10
47338;DHT22;33069;51.970;5.892;2023-03-12T06:05:35;3.10;73.00
47338;DHT22;33069;51.970;5.892;2023-03-12T06:08:02;3.10;73.00
47338;DHT22;33069;51.970;5.892;2023-03-12T06:10:28;3.20;72.90
47338;DHT22;33069;51.970;5.892;2023-03-12T06:12:54;3.20;72.50
47338;DHT22;33069;51.970;5.892;2023-03-12T06:15:20;3.20;72.80
47338;DHT22;33069;51.970;5.892;2023-03-12T06:17:46;3.10;72.70
47338;DHT22;33069;51.970;5.892;2023-03-12T06:20:11;3.20;73.00
47338;DHT22;33069;51.970;5.892;2023-03-12T06:22:37;3.10;72.90
47338;DHT22;33069;51.970;5.892;2023-03-12T06:25:03;3.10;73.20
47338;DHT22;33069;51.970;5.892;2023-03-12T06:27:29;3.10;73.40
47338;DHT22;33069;51.970;5.892;2023-03-12T06:29:55;3.10;73.40
47338;DHT22;33069;51.970;5.892;2023-03-12T06:32:21;3.10;73.60
47338;DHT22;33069;51.970;5.892;2023-03-12T06:34:47;3.30;73.80
47338;DHT22;33069;51.970;5.892;2023-03-12T06:37:13;3.30;73.80
47338;DHT22;33069;51.970;5.892;2023-03-12T06:39:39;3.40;73.80
47338;DHT22;33069;51.970;5.892;2023-03-12T06:42:05;3.40;73.80
47338;DHT22;33069;51.970;5.892;2023-03-12T06:44:30;3.20;74.50
47338;DHT22;33069;51.970;5.892;2023-03-12T06:46:57;3.10;75.20
47338;DHT22;33069;51.970;5.892;2023-03-12T06:49:23;2.90;76.00
47338;DHT22;33069;51.970;5.892;2023-03-12T06:51:49;3.00;76.60
47338;DHT22;33069;51.970;5.892;2023-03-12T06:54:15;3.00;76.90
47338;DHT22;33069;51.970;5.892;2023-03-12T06:56:41;3.00;77.10
47338;DHT22;33069;51.970;5.892;2023-03-12T06:59:07;3.10;77.40
47338;DHT22;33069;51.970;5.892;2023-03-12T07:01:32;3.30;77.60
47338;DHT22;33069;51.970;5.892;2023-03-12T07:03:58;3.20;77.40
47338;DHT22;33069;51.970;5.892;2023-03-12T07:06:24;3.30;77.30
47338;DHT22;33069;51.970;5.892;2023-03-12T07:08:50;3.30;77.40
47338;DHT22;33069;51.970;5.892;2023-03-12T07:11:16;3.30;77.70
47338;DHT22;33069;51.970;5.892;2023-03-12T07:13:43;3.20;78.00
47338;DHT22;33069;51.970;5.892;2023-03-12T07:16:09;3.30;78.40
47338;DHT22;33069;51.970;5.892;2023-03-12T07:18:35;3.30;78.90
47338;DHT22;33069;51.970;5.892;2023-03-12T07:21:01;3.30;79.30
47338;DHT22;33069;51.970;5.892;2023-03-12T07:23:27;3.40;79.80
47338;DHT22;33069;51.970;5.892;2023-03-12T07:25:52;3.30;80.00
47338;DHT22;33069;51.970;5.892;2023-03-12T07:28:19;3.30;80.30
47338;DHT22;33069;51.970;5.892;2023-03-12T07:30:45;3.40;80.50
47338;DHT22;33069;51.970;5.892;2023-03-12T07:33:16;3.50;80.50
47338;DHT22;33069;51.970;5.892;2023-03-12T07:35:44;3.40;80.50
47338;DHT22;33069;51.970;5.892;2023-03-12T07:38:09;3.70;81.00
47338;DHT22;33069;51.970;5.892;2023-03-12T07:40:35;3.60;80.70
47338;DHT22;33069;51.970;5.892;2023-03-12T07:43:02;3.80;81.20
47338;DHT22;33069;51.970;5.892;2023-03-12T07:45:28;3.60;81.20
47338;DHT22;33069;51.970;5.892;2023-03-12T07:47:54;3.50;81.50
47338;DHT22;33069;51.970;5.892;2023-03-12T07:50:20;3.70;82.10
47338;DHT22;33069;51.970;5.892;2023-03-12T07:52:46;3.80;82.30
47338;DHT22;33069;51.970;5.892;2023-03-12T07:55:12;3.60;82.30
47338;DHT22;33069;51.970;5.892;2023-03-12T07:57:38;3.70;82.70
47338;DHT22;33069;51.970;5.892;2023-03-12T08:00:05;3.80;83.00
47338;DHT22;33069;51.970;5.892;2023-03-12T08:02:35;3.80;83.10
47338;DHT22;33069;51.970;5.892;2023-03-12T08:05:01;3.80;83.20
47338;DHT22;33069;51.970;5.892;2023-03-12T08:07:27;3.80;83.20
47338;DHT22;33069;51.970;5.892;2023-03-12T08:09:58;3.70;83.40
47338;DHT22;33069;51.970;5.892;2023-03-12T08:12:23;3.90;83.70
47338;DHT22;33069;51.970;5.892;2023-03-12T08:14:49;3.80;83.70
47338;DHT22;33069;51.970;5.892;2023-03-12T08:17:15;3.80;84.00
47338;DHT22;33069;51.970;5.892;2023-03-12T08:19:41;3.70;84.20
47338;DHT22;33069;51.970;5.892;2023-03-12T08:22:07;3.90;84.80
47338;DHT22;33069;51.970;5.892;2023-03-12T08:24:33;3.80;84.80
47338;DHT22;33069;51.970;5.892;2023-03-12T08:27:00;3.80;85.00
47338;DHT22;33069;51.970;5.892;2023-03-12T08:29:26;3.90;85.30
47338;DHT22;33069;51.970;5.892;2023-03-12T08:31:51;3.90;85.40
47338;DHT22;33069;51.970;5.892;2023-03-12T08:34:17;3.90;85.60
47338;DHT22;33069;51.970;5.892;2023-03-12T08:36:43;3.80;85.60
47338;DHT22;33069;51.970;5.892;2023-03-12T08:39:08;3.90;85.90
47338;DHT22;33069;51.970;5.892;2023-03-12T08:41:34;3.90;86.00
47338;DHT22;33069;51.970;5.892;2023-03-12T08:44:00;3.80;86.20
47338;DHT22;33069;51.970;5.892;2023-03-12T08:46:25;4.10;86.50
47338;DHT22;33069;51.970;5.892;2023-03-12T08:48:51;4.10;86.60
47338;DHT22;33069;51.970;5.892;2023-03-12T08:51:17;4.30;86.70
47338;DHT22;33069;51.970;5.892;2023-03-12T08:53:43;4.20;86.70
47338;DHT22;33069;51.970;5.892;2023-03-12T08:56:09;4.20;86.70
47338;DHT22;33069;51.970;5.892;2023-03-12T08:58:35;4.30;86.80
47338;DHT22;33069;51.970;5.892;2023-03-12T09:01:01;4.30;86.80
47338;DHT22;33069;51.970;5.892;2023-03-12T09:03:26;4.40;86.90
47338;DHT22;33069;51.970;5.892;2023-03-12T09:06:10;4.40;86.90
47338;DHT22;33069;51.970;5.892;2023-03-12T09:08:39;4.50;87.10
47338;DHT22;33069;51.970;5.892;2023-03-12T09:11:06;5.00;87.20
47338;DHT22;33069;51.970;5.892;2023-03-12T09:13:33;4.80;86.60
47338;DHT22;33069;51.970;5.892;2023-03-12T09:16:00;4.70;86.40
47338;DHT22;33069;51.970;5.892;2023-03-12T09:18:27;5.00;86.60
47338;DHT22;33069;51.970;5.892;2023-03-12T09:20:53;4.90;86.50
47338;DHT22;33069;51.970;5.892;2023-03-12T09:23:19;4.90;86.50
47338;DHT22;33069;51.970;5.892;2023-03-12T09:25:45;4.80;86.60
47338;DHT22;33069;51.970;5.892;2023-03-12T09:28:11;4.90;86.80
47338;DHT22;33069;51.970;5.892;2023-03-12T09:30:37;4.90;86.80
47338;DHT22;33069;51.970;5.892;2023-03-12T09:33:03;5.00;86.90
47338;DHT22;33069;51.970;5.892;2023-03-12T09:35:29;5.10;87.20
47338;DHT22;33069;51.970;5.892;2023-03-12T09:37:56;5.30;87.20
47338;DHT22;33069;51.970;5.892;2023-03-12T09:40:26;5.20;87.10
47338;DHT22;33069;51.970;5.892;2023-03-12T09:43:20;5.00;87.20
47338;DHT22;33069;51.970;5.892;2023-03-12T09:45:48;5.10;87.40
47338;DHT22;33069;51.970;5.892;2023-03-12T09:48:33;5.30;87.60
47338;DHT22;33069;51.970;5.892;2023-03-12T09:51:04;5.40;87.70
47338;DHT22;33069;51.970;5.892;2023-03-12T09:53:41;5.40;87.70
47338;DHT22;33069;51.970;5.892;2023-03-12T09:56:15;5.30;87.80
47338;DHT22;33069;51.970;5.892;2023-03-12T09:58:42;5.70;88.00
47338;DHT22;33069;51.970;5.892;2023-03-12T10:01:25;5.60;87.80
47338;DHT22;33069;51.970;5.892;2023-03-12T10:06:37;5.80;87.90
47338;DHT22;33069;51.970;5.892;2023-03-12T10:09:36;5.80;87.90
47338;DHT22;33069;51.970;5.892;2023-03-12T10:12:14;5.90;88.00
47338;DHT22;33069;51.970;5.892;2023-03-12T10:26:28;6.30;88.10
47338;DHT22;33069;51.970;5.892;2023-03-12T10:29:23;6.30;88.10
47338;DHT22;33069;51.970;5.892;2023-03-12T10:32:05;6.30;88.20
47338;DHT22;33069;51.970;5.892;2023-03-12T10:34:46;6.40;88.50
47338;DHT22;33069;51.970;5.892;2023-03-12T10:37:16;6.50;88.40
47338;DHT22;33069;51.970;5.892;2023-03-12T10:39:43;6.50;88.60
47338;DHT22;33069;51.970;5.892;2023-03-12T10:42:25;6.70;88.70
47338;DHT22;33069;51.970;5.892;2023-03-12T10:44:58;6.80;88.80
47338;DHT22;33069;51.970;5.892;2023-03-12T10:47:35;6.80;88.80
47338;DHT22;33069;51.970;5.892;2023-03-12T10:50:23;6.80;88.90
47338;DHT22;33069;51.970;5.892;2023-03-12T10:52:51;7.00;89.00
47338;DHT22;33069;51.970;5.892;2023-03-12T10:55:28;7.10;88.90
47338;DHT22;33069;51.970;5.892;2023-03-12T10:57:55;7.20;88.70
47338;DHT22;33069;51.970;5.892;2023-03-12T11:00:31;7.30;88.50
47338;DHT22;33069;51.970;5.892;2023-03-12T11:03:18;7.30;88.60
47338;DHT22;33069;51.970;5.892;2023-03-12T11:05:47;7.50;88.80
47338;DHT22;33069;51.970;5.892;2023-03-12T11:08:23;7.70;88.90
47338;DHT22;33069;51.970;5.892;2023-03-12T11:10:49;7.70;88.80
47338;DHT22;33069;51.970;5.892;2023-03-12T11:13:22;7.70;88.90
47338;DHT22;33069;51.970;5.892;2023-03-12T11:15:49;7.80;89.20
47338;DHT22;33069;51.970;5.892;2023-03-12T11:18:20;7.80;88.90
47338;DHT22;33069;51.970;5.892;2023-03-12T11:20:47;8.00;88.90
47338;DHT22;33069;51.970;5.892;2023-03-12T11:23:24;8.10;88.80
47338;DHT22;33069;51.970;5.892;2023-03-12T11:26:19;8.20;88.80
47338;DHT22;33069;51.970;5.892;2023-03-12T11:28:46;8.10;88.80
47338;DHT22;33069;51.970;5.892;2023-03-12T11:31:40;8.30;89.00
47338;DHT22;33069;51.970;5.892;2023-03-12T11:34:09;8.40;88.50
47338;DHT22;33069;51.970;5.892;2023-03-12T11:36:44;8.40;88.60
47338;DHT22;33069;51.970;5.892;2023-03-12T11:39:25;8.50;88.70
47338;DHT22;33069;51.970;5.892;2023-03-12T11:42:19;8.70;88.70
47338;DHT22;33069;51.970;5.892;2023-03-12T11:50:37;8.80;88.30
47338;DHT22;33069;51.970;5.892;2023-03-12T11:56:13;9.10;88.30
47338;DHT22;33069;51.970;5.892;2023-03-12T12:01:28;9.00;88.40
47338;DHT22;33069;51.970;5.892;2023-03-12T12:07:05;9.20;88.60
47338;DHT22;33069;51.970;5.892;2023-03-12T12:09:56;9.20;88.60
47338;DHT22;33069;51.970;5.892;2023-03-12T12:20:59;9.30;88.80
47338;DHT22;33069;51.970;5.892;2023-03-12T12:26:31;9.30;88.50
47338;DHT22;33069;51.970;5.892;2023-03-12T12:29:04;9.30;88.40
47338;DHT22;33069;51.970;5.892;2023-03-12T12:31:36;9.40;88.40
47338;DHT22;33069;51.970;5.892;2023-03-12T12:40:24;9.50;88.20
47338;DHT22;33069;51.970;5.892;2023-03-12T12:45:27;9.50;86.90
47338;DHT22;33069;51.970;5.892;2023-03-12T12:48:06;9.50;87.00
47338;DHT22;33069;51.970;5.892;2023-03-12T12:50:36;9.50;86.80
47338;DHT22;33069;51.970;5.892;2023-03-12T12:53:22;9.60;86.50
47338;DHT22;33069;51.970;5.892;2023-03-12T12:56:05;9.70;87.00
47338;DHT22;33069;51.970;5.892;2023-03-12T13:01:21;9.70;87.10
47338;DHT22;33069;51.970;5.892;2023-03-12T13:03:47;9.60;87.30
47338;DHT22;33069;51.970;5.892;2023-03-12T13:06:14;9.60;87.20
47338;DHT22;33069;51.970;5.892;2023-03-12T13:16:31;9.70;86.50
47338;DHT22;33069;51.970;5.892;2023-03-12T13:18:59;10.00;86.20
47338;DHT22;33069;51.970;5.892;2023-03-12T13:26:56;9.80;85.50
47338;DHT22;33069;51.970;5.892;2023-03-12T13:31:54;10.20;84.40
47338;DHT22;33069;51.970;5.892;2023-03-12T13:36:49;10.20;83.20
47338;DHT22;33069;51.970;5.892;2023-03-12T13:41:54;10.20;83.00
47338;DHT22;33069;51.970;5.892;2023-03-12T13:57:53;10.60;79.60
47338;DHT22;33069;51.970;5.892;2023-03-12T14:00:26;10.60;78.80
47338;DHT22;33069;51.970;5.892;2023-03-12T14:03:00;10.60;79.20
47338;DHT22;33069;51.970;5.892;2023-03-12T14:05:41;10.70;78.90
47338;DHT22;33069;51.970;5.892;2023-03-12T14:08:20;10.90;77.40
47338;DHT22;33069;51.970;5.892;2023-03-12T14:16:41;11.20;76.60
47338;DHT22;33069;51.970;5.892;2023-03-12T14:19:16;11.20;75.70
47338;DHT22;33069;51.970;5.892;2023-03-12T14:21:44;11.30;74.10
47338;DHT22;33069;51.970;5.892;2023-03-12T14:24:41;11.20;74.30
47338;DHT22;33069;51.970;5.892;2023-03-12T14:27:18;11.30;74.10
47338;DHT22;33069;51.970;5.892;2023-03-12T14:30:24;11.20;73.40
47338;DHT22;33069;51.970;5.892;2023-03-12T14:32:56;11.50;72.20
47338;DHT22;33069;51.970;5.892;2023-03-12T14:35:37;11.50;72.00
47338;DHT22;33069;51.970;5.892;2023-03-12T14:38:31;11.40;70.90
47338;DHT22;33069;51.970;5.892;2023-03-12T14:41:28;11.40;69.80
47338;DHT22;33069;51.970;5.892;2023-03-12T14:44:37;11.30;69.60
47338;DHT22;33069;51.970;5.892;2023-03-12T14:47:01;11.10;70.20
47338;DHT22;33069;51.970;5.892;2023-03-12T14:49:28;11.10;71.40
47338;DHT22;33069;51.970;5.892;2023-03-12T14:51:55;11.20;70.50
47338;DHT22;33069;51.970;5.892;2023-03-12T14:54:24;11.50;69.40
47338;DHT22;33069;51.970;5.892;2023-03-12T14:56:50;11.40;68.70
47338;DHT22;33069;51.970;5.892;2023-03-12T14:59:28;11.30;68.60
47338;DHT22;33069;51.970;5.892;2023-03-12T15:02:12;11.10;69.80
47338;DHT22;33069;51.970;5.892;2023-03-12T15:04:39;11.10;71.10
47338;DHT22;33069;51.970;5.892;2023-03-12T15:07:08;11.20;71.20
47338;DHT22;33069;51.970;5.892;2023-03-12T15:09:41;11.40;69.20
47338;DHT22;33069;51.970;5.892;2023-03-12T15:12:20;11.40;69.40
47338;DHT22;33069;51.970;5.892;2023-03-12T15:14:49;11.30;70.10
47338;DHT22;33069;51.970;5.892;2023-03-12T15:17:18;11.20;69.70
47338;DHT22;33069;51.970;5.892;2023-03-12T15:19:44;11.20;70.20
47338;DHT22;33069;51.970;5.892;2023-03-12T15:22:16;11.40;68.60
47338;DHT22;33069;51.970;5.892;2023-03-12T15:24:44;11.40;68.80
47338;DHT22;33069;51.970;5.892;2023-03-12T15:29:47;11.70;68.20
47338;DHT22;33069;51.970;5.892;2023-03-12T15:32:14;11.50;68.80
47338;DHT22;33069;51.970;5.892;2023-03-12T15:34:40;11.50;68.70
47338;DHT22;33069;51.970;5.892;2023-03-12T15:37:29;11.50;67.80
47338;DHT22;33069;51.970;5.892;2023-03-12T15:40:26;11.60;67.80
47338;DHT22;33069;51.970;5.892;2023-03-12T15:42:53;11.50;68.20
47338;DHT22;33069;51.970;5.892;2023-03-12T15:47:59;11.00;69.80
47338;DHT22;33069;51.970;5.892;2023-03-12T15:50:40;11.30;69.20
47338;DHT22;33069;51.970;5.892;2023-03-12T15:53:31;11.10;70.00
47338;DHT22;33069;51.970;5.892;2023-03-12T15:56:03;11.20;70.00
47338;DHT22;33069;51.970;5.892;2023-03-12T15:58:35;11.20;69.40
47338;DHT22;33069;51.970;5.892;2023-03-12T16:01:12;11.00;70.40
47338;DHT22;33069;51.970;5.892;2023-03-12T16:03:40;11.20;69.90
47338;DHT22;33069;51.970;5.892;2023-03-12T16:06:15;11.30;69.90
47338;DHT22;33069;51.970;5.892;2023-03-12T16:08:48;11.20;69.80
47338;DHT22;33069;51.970;5.892;2023-03-12T16:11:17;11.20;69.60
47338;DHT22;33069;51.970;5.892;2023-03-12T16:13:45;11.20;69.50
47338;DHT22;33069;51.970;5.892;2023-03-12T16:16:12;11.20;69.70
47338;DHT22;33069;51.970;5.892;2023-03-12T16:18:39;11.20;69.70
47338;DHT22;33069;51.970;5.892;2023-03-12T16:21:05;11.20;70.20
47338;DHT22;33069;51.970;5.892;2023-03-12T16:23:31;11.20;70.10
47338;DHT22;33069;51.970;5.892;2023-03-12T16:25:57;11.00;70.80
47338;DHT22;33069;51.970;5.892;2023-03-12T16:28:23;10.90;71.40
47338;DHT22;33069;51.970;5.892;2023-03-12T16:30:50;10.80;71.90
47338;DHT22;33069;51.970;5.892;2023-03-12T16:33:19;11.00;71.30
47338;DHT22;33069;51.970;5.892;2023-03-12T16:35:45;10.80;72.00
47338;DHT22;33069;51.970;5.892;2023-03-12T16:38:11;10.80;72.20
47338;DHT22;33069;51.970;5.892;2023-03-12T16:40:41;10.80;72.70
47338;DHT22;33069;51.970;5.892;2023-03-12T16:43:15;10.90;72.30
47338;DHT22;33069;51.970;5.892;2023-03-12T16:45:42;10.70;73.20
47338;DHT22;33069;51.970;5.892;2023-03-12T16:48:13;10.80;72.90
47338;DHT22;33069;51.970;5.892;2023-03-12T16:50:39;10.70;73.70
47338;DHT22;33069;51.970;5.892;2023-03-12T16:53:05;10.80;73.50
47338;DHT22;33069;51.970;5.892;2023-03-12T16:55:43;10.80;73.00
47338;DHT22;33069;51.970;5.892;2023-03-12T16:58:10;10.60;74.10
47338;DHT22;33069;51.970;5.892;2023-03-12T17:00:37;10.50;74.80
47338;DHT22;33069;51.970;5.892;2023-03-12T17:03:04;10.60;74.30
47338;DHT22;33069;51.970;5.892;2023-03-12T17:05:31;10.60;74.20
47338;DHT22;33069;51.970;5.892;2023-03-12T17:07:57;10.60;74.20
47338;DHT22;33069;51.970;5.892;2023-03-12T17:10:24;10.70;73.50
47338;DHT22;33069;51.970;5.892;2023-03-12T17:12:51;10.50;74.20
47338;DHT22;33069;51.970;5.892;2023-03-12T17:15:24;10.60;74.20
47338;DHT22;33069;51.970;5.892;2023-03-12T17:17:51;10.60;73.30
47338;DHT22;33069;51.970;5.892;2023-03-12T17:20:19;10.60;73.30
47338;DHT22;33069;51.970;5.892;2023-03-12T17:22:46;10.50;73.60
47338;DHT22;33069;51.970;5.892;2023-03-12T17:25:26;10.80;72.60
47338;DHT22;33069;51.970;5.892;2023-03-12T17:27:53;10.70;72.70
47338;DHT22;33069;51.970;5.892;2023-03-12T17:30:21;10.70;72.50
47338;DHT22;33069;51.970;5.892;2023-03-12T17:32:48;10.70;72.00
47338;DHT22;33069;51.970;5.892;2023-03-12T17:35:14;10.50;73.00
47338;DHT22;33069;51.970;5.892;2023-03-12T17:37:40;10.70;72.40
47338;DHT22;33069;51.970;5.892;2023-03-12T17:40:06;10.60;72.00
47338;DHT22;33069;51.970;5.892;2023-03-12T17:42:33;10.60;72.90